Time;durP1;ratioP1;P1;durP2;ratioP2;P2;SDS_P1;SDS_P2;PMS_P1;PMS_P2;Temp;Humidity;BMP_temperature;BMP_pressure;BME280_temperature;BME280_humidity;BME280_pressure;Samples;Min_cycle;Max_cycle;Signal;HPM_P1;HPM_P2
2021/08/04 00:00:38;;;;;;;0.37;0.37;;;14.80;99.90;;;;;;4995933;28;20491;-86
2021/08/04 00:03:05;;;;;;;0.80;0.50;;;14.90;99.90;;;;;;4995696;28;20452;-86
2021/08/04 00:05:32;;;;;;;1.40;0.47;;;14.90;99.90;;;;;;4996002;28;20441;-86
2021/08/04 00:08:00;;;;;;;0.50;0.43;;;14.90;99.90;;;;;;4995873;28;20471;-86
2021/08/04 00:10:26;;;;;;;0.30;0.30;;;14.80;99.90;;;;;;4995874;28;20465;-86
2021/08/04 00:12:53;;;;;;;0.40;0.30;;;14.90;99.90;;;;;;4995861;28;20480;-85
2021/08/04 00:15:20;;;;;;;0.57;0.40;;;14.90;99.90;;;;;;4995521;28;20432;-86
2021/08/04 00:17:48;;;;;;;0.40;0.40;;;14.90;99.90;;;;;;4995813;28;20929;-86
2021/08/04 00:20:15;;;;;;;0.50;0.37;;;15.00;99.90;;;;;;4995663;28;20464;-86
2021/08/04 00:22:43;;;;;;;1.03;0.50;;;14.90;99.90;;;;;;4995597;28;20456;-86
2021/08/04 00:25:12;;;;;;;0.70;0.70;;;14.90;99.90;;;;;;4995372;28;20936;-86
2021/08/04 00:27:39;;;;;;;0.47;0.47;;;15.00;99.90;;;;;;4995587;28;20844;-86
2021/08/04 00:30:07;;;;;;;0.37;0.30;;;14.90;99.90;;;;;;4995362;28;20452;-86
2021/08/04 00:32:34;;;;;;;0.50;0.30;;;14.90;99.90;;;;;;4995285;28;20487;-86
2021/08/04 00:35:01;;;;;;;0.60;0.60;;;15.00;99.90;;;;;;4995367;28;20961;-86
2021/08/04 00:37:28;;;;;;;0.50;0.50;;;14.90;99.90;;;;;;4995366;28;20920;-86
2021/08/04 00:39:54;;;;;;;0.70;0.40;;;15.00;99.90;;;;;;4995236;28;20448;-86
2021/08/04 00:42:22;;;;;;;0.40;0.40;;;15.00;99.90;;;;;;4995400;28;20441;-86
2021/08/04 00:44:50;;;;;;;1.17;0.40;;;15.00;99.90;;;;;;4995314;28;20437;-86
2021/08/04 00:47:17;;;;;;;0.70;0.50;;;15.00;99.90;;;;;;4995400;28;20453;-86
2021/08/04 00:49:44;;;;;;;0.50;0.50;;;14.90;99.90;;;;;;4995475;28;20507;-86
2021/08/04 00:52:11;;;;;;;0.40;0.40;;;14.90;99.90;;;;;;4994478;28;20491;-86
2021/08/04 00:54:38;;;;;;;0.43;0.30;;;14.90;99.90;;;;;;4995245;28;20940;-86
2021/08/04 00:57:05;;;;;;;0.60;0.40;;;14.90;99.90;;;;;;4994945;28;21022;-86
2021/08/04 00:59:33;;;;;;;0.50;0.43;;;14.90;99.90;;;;;;4995113;28;20459;-86
2021/08/04 01:02:08;;;;;;;0.30;0.30;;;14.90;99.90;;;;;;4994570;28;20473;-86
2021/08/04 01:04:39;;;;;;;0.40;0.30;;;14.90;99.90;;;;;;4994392;28;20448;-86
2021/08/04 01:07:11;;;;;;;0.90;0.40;;;14.90;99.90;;;;;;4994212;28;20424;-86
2021/08/04 01:09:43;;;;;;;0.47;0.33;;;14.90;99.90;;;;;;4994456;28;20429;-86
2021/08/04 01:12:13;;;;;;;0.40;0.33;;;14.90;99.90;;;;;;4993931;28;20995;-86
2021/08/04 01:14:43;;;;;;;0.40;0.30;;;14.90;99.90;;;;;;4995125;28;20444;-86
2021/08/04 01:17:11;;;;;;;1.27;0.40;;;14.90;99.90;;;;;;4994518;28;20448;-86
2021/08/04 01:19:53;;;;;;;0.83;0.30;;;14.80;99.90;;;;;;4994881;28;20460;-86
2021/08/04 01:22:27;;;;;;;0.30;0.30;;;14.80;99.90;;;;;;4994920;28;20812;-86
2021/08/04 01:25:01;;;;;;;0.33;0.30;;;14.80;99.90;;;;;;4994744;28;20463;-86
2021/08/04 01:27:31;;;;;;;0.37;0.30;;;14.80;99.90;;;;;;4994634;28;20425;-87
2021/08/04 01:30:00;;;;;;;0.40;0.40;;;14.80;99.90;;;;;;4994848;28;20452;-86
2021/08/04 01:32:29;;;;;;;0.53;0.40;;;14.70;99.90;;;;;;4994815;28;20476;-86
2021/08/04 01:34:56;;;;;;;0.40;0.30;;;14.70;99.90;;;;;;4994717;28;20453;-86
2021/08/04 01:37:25;;;;;;;0.93;0.50;;;14.70;99.90;;;;;;4994507;28;20437;-86
2021/08/04 01:39:53;;;;;;;0.93;0.40;;;14.70;99.90;;;;;;4994493;28;20488;-86
2021/08/04 01:42:21;;;;;;;0.40;0.40;;;14.70;99.90;;;;;;4994329;28;20440;-86
2021/08/04 01:44:51;;;;;;;0.40;0.30;;;14.70;99.90;;;;;;4994592;28;20462;-86
2021/08/04 01:47:19;;;;;;;0.50;0.30;;;14.60;99.90;;;;;;4994576;28;20440;-86
2021/08/04 01:49:47;;;;;;;0.93;0.70;;;14.60;99.90;;;;;;4994345;28;20440;-86
2021/08/04 01:52:14;;;;;;;0.40;0.30;;;14.60;99.90;;;;;;4994120;28;20520;-87
2021/08/04 01:54:42;;;;;;;0.60;0.60;;;14.60;99.90;;;;;;4994459;28;20432;-86
2021/08/04 01:57:09;;;;;;;0.40;0.40;;;14.60;99.90;;;;;;4994125;28;20495;-86
2021/08/04 01:59:35;;;;;;;0.30;0.30;;;14.60;99.90;;;;;;4994276;28;20437;-86
2021/08/04 02:02:17;;;;;;;0.40;0.30;;;14.60;99.90;;;;;;4994981;28;20460;-86
2021/08/04 02:04:43;;;;;;;0.43;0.43;;;14.60;99.90;;;;;;4998079;28;20413;-86
2021/08/04 02:07:16;;;;;;;0.63;0.30;;;14.60;99.90;;;;;;4997721;28;20932;-86
2021/08/04 02:09:49;;;;;;;0.40;0.30;;;14.50;99.90;;;;;;4998166;28;20429;-86
2021/08/04 02:12:16;;;;;;;0.40;0.30;;;14.50;99.90;;;;;;4998613;28;20495;-87
2021/08/04 02:14:49;;;;;;;0.60;0.50;;;14.50;99.90;;;;;;4998036;28;20820;-86
2021/08/04 02:17:22;;;;;;;0.60;0.40;;;14.50;99.90;;;;;;4997891;28;20436;-86
2021/08/04 02:19:54;;;;;;;0.40;0.37;;;14.50;99.90;;;;;;4998726;28;20459;-86
2021/08/04 02:22:29;;;;;;;0.60;0.40;;;14.50;99.90;;;;;;4997753;28;20421;-86
2021/08/04 02:25:04;;;;;;;0.70;0.70;;;14.50;99.90;;;;;;4998650;28;20432;-86
2021/08/04 02:27:31;;;;;;;0.33;0.33;;;14.60;99.90;;;;;;4997981;28;20436;-84
2021/08/04 02:30:01;;;;;;;0.77;0.40;;;14.60;99.90;;;;;;4997697;28;20860;-86
2021/08/04 02:32:29;;;;;;;0.50;0.43;;;14.50;99.90;;;;;;4997698;28;20480;-86
2021/08/04 02:34:56;;;;;;;0.40;0.40;;;14.60;99.90;;;;;;4997713;28;20792;-86
2021/08/04 02:37:23;;;;;;;0.90;0.30;;;14.60;99.90;;;;;;4997384;28;20456;-85
2021/08/04 02:39:50;;;;;;;0.50;0.30;;;14.60;99.90;;;;;;4997358;28;20441;-86
2021/08/04 02:42:18;;;;;;;0.40;0.40;;;14.60;99.90;;;;;;4997628;28;20972;-86
2021/08/04 02:44:45;;;;;;;0.60;0.50;;;14.60;99.90;;;;;;4997739;28;20440;-86
2021/08/04 02:47:12;;;;;;;0.57;0.30;;;14.60;99.90;;;;;;4997497;28;20436;-86
2021/08/04 02:49:40;;;;;;;1.13;0.50;;;14.60;99.90;;;;;;4997285;28;20445;-86
2021/08/04 02:52:08;;;;;;;0.77;0.50;;;14.60;99.90;;;;;;4997109;28;20468;-86
2021/08/04 02:54:35;;;;;;;0.40;0.30;;;14.60;99.90;;;;;;4997095;28;21014;-86
2021/08/04 02:57:02;;;;;;;0.50;0.50;;;14.60;99.90;;;;;;4996561;28;20480;-86
2021/08/04 02:59:29;;;;;;;0.70;0.40;;;14.60;99.90;;;;;;4997643;28;20464;-86
2021/08/04 03:01:55;;;;;;;0.63;0.50;;;14.60;99.90;;;;;;4996815;28;20990;-86
2021/08/04 03:04:22;;;;;;;0.60;0.60;;;14.60;99.90;;;;;;4997035;28;20822;-86
2021/08/04 03:06:50;;;;;;;0.60;0.40;;;14.60;99.90;;;;;;4996908;28;20459;-86
2021/08/04 03:09:17;;;;;;;0.37;0.30;;;14.60;99.90;;;;;;4996879;28;20439;-86
2021/08/04 03:11:43;;;;;;;0.50;0.50;;;14.60;99.90;;;;;;4996671;28;20456;-86
2021/08/04 03:14:10;;;;;;;0.60;0.40;;;14.60;99.90;;;;;;4996084;28;20488;-86
2021/08/04 03:16:37;;;;;;;0.60;0.50;;;14.60;99.90;;;;;;4996784;28;20452;-87
2021/08/04 03:19:04;;;;;;;0.40;0.30;;;14.50;99.90;;;;;;4996896;28;20448;-87
2021/08/04 03:21:31;;;;;;;0.70;0.50;;;14.50;99.90;;;;;;4996673;28;20499;-87
2021/08/04 03:23:59;;;;;;;0.73;0.47;;;14.50;99.90;;;;;;4996514;28;20999;-87
2021/08/04 03:26:25;;;;;;;0.57;0.50;;;14.50;99.90;;;;;;4996435;28;20460;-86
2021/08/04 03:28:52;;;;;;;1.10;0.70;;;14.50;99.90;;;;;;4996596;28;20788;-86
2021/08/04 03:31:19;;;;;;;0.77;0.43;;;14.50;99.90;;;;;;4996443;28;20491;-86
2021/08/04 03:33:46;;;;;;;0.57;0.43;;;14.50;99.90;;;;;;4996166;28;20479;-86
2021/08/04 03:36:12;;;;;;;0.40;0.30;;;14.50;99.90;;;;;;4996178;28;20448;-86
2021/08/04 03:38:39;;;;;;;0.93;0.50;;;14.50;99.90;;;;;;4996323;28;20444;-86
2021/08/04 03:41:07;;;;;;;0.70;0.43;;;14.50;99.90;;;;;;4996215;28;21007;-86
2021/08/04 03:43:34;;;;;;;0.30;0.30;;;14.50;99.90;;;;;;4996371;28;20449;-86
2021/08/04 03:46:01;;;;;;;0.60;0.37;;;14.50;99.90;;;;;;4996345;28;20452;-86
2021/08/04 03:48:28;;;;;;;0.40;0.40;;;14.50;99.90;;;;;;4996089;28;20948;-86
2021/08/04 03:50:54;;;;;;;0.40;0.37;;;14.50;99.90;;;;;;4996156;28;20472;-86
2021/08/04 03:53:21;;;;;;;0.40;0.40;;;14.50;99.90;;;;;;4996087;28;21003;-86
2021/08/04 03:55:48;;;;;;;3.43;0.50;;;14.40;99.90;;;;;;4995879;28;20484;-86
2021/08/04 03:58:16;;;;;;;0.50;0.30;;;14.40;99.90;;;;;;4995571;28;20433;-86
2021/08/04 04:00:43;;;;;;;0.73;0.37;;;14.40;99.90;;;;;;4996001;28;20476;-86
2021/08/04 04:03:10;;;;;;;0.50;0.40;;;14.30;99.90;;;;;;4996001;28;20543;-86
2021/08/04 04:05:37;;;;;;;0.57;0.40;;;14.30;99.90;;;;;;4995669;28;20459;-86
2021/08/04 04:08:04;;;;;;;0.50;0.40;;;14.30;99.90;;;;;;4995699;28;20459;-86
2021/08/04 04:10:31;;;;;;;0.70;0.30;;;14.30;99.90;;;;;;4995856;28;20468;-86
2021/08/04 04:12:58;;;;;;;0.40;0.30;;;14.30;99.90;;;;;;4995710;28;20487;-85
2021/08/04 04:15:26;;;;;;;0.83;0.40;;;14.30;99.90;;;;;;4995488;28;20441;-86
2021/08/04 04:17:53;;;;;;;0.40;0.40;;;14.30;99.90;;;;;;4995810;28;20433;-86
2021/08/04 04:20:19;;;;;;;0.40;0.30;;;14.30;99.90;;;;;;4995789;28;20475;-85
2021/08/04 04:22:46;;;;;;;0.40;0.40;;;14.30;99.90;;;;;;4995856;28;20453;-86
2021/08/04 04:25:15;;;;;;;0.70;0.50;;;14.30;99.90;;;;;;4995577;28;20437;-86
2021/08/04 04:27:42;;;;;;;0.30;0.30;;;14.30;99.90;;;;;;4995616;28;20981;-86
2021/08/04 04:30:10;;;;;;;0.40;0.33;;;14.40;99.90;;;;;;4995420;28;20547;-86
2021/08/04 04:32:38;;;;;;;0.37;0.30;;;14.40;99.90;;;;;;4995653;28;20937;-86
2021/08/04 04:35:06;;;;;;;0.40;0.40;;;14.40;99.90;;;;;;4995597;28;20455;-86
2021/08/04 04:37:33;;;;;;;0.40;0.40;;;14.40;99.90;;;;;;4995542;28;20455;-86
2021/08/04 04:40:00;;;;;;;0.40;0.30;;;14.40;99.90;;;;;;4996073;28;20936;-85
2021/08/04 04:42:26;;;;;;;0.60;0.40;;;14.40;99.90;;;;;;4995564;28;20444;-85
2021/08/04 04:44:54;;;;;;;0.83;0.43;;;14.40;99.90;;;;;;4995593;28;20448;-86
2021/08/04 04:47:20;;;;;;;0.40;0.40;;;14.40;99.90;;;;;;4995086;28;20433;-86
2021/08/04 04:49:48;;;;;;;0.43;0.43;;;14.40;99.90;;;;;;4995262;28;20805;-86
2021/08/04 04:52:15;;;;;;;0.30;0.30;;;14.40;99.90;;;;;;4994833;28;20461;-85
2021/08/04 04:54:42;;;;;;;0.60;0.60;;;14.40;99.90;;;;;;4995226;28;20488;-86
2021/08/04 04:57:09;;;;;;;1.60;0.60;;;14.40;99.90;;;;;;4994757;28;20468;-86
2021/08/04 04:59:35;;;;;;;0.43;0.40;;;14.50;99.90;;;;;;4995026;28;20821;-86
2021/08/04 05:02:02;;;;;;;0.60;0.47;;;14.40;99.90;;;;;;4994788;28;20453;-86
2021/08/04 05:04:29;;;;;;;0.47;0.47;;;14.50;99.90;;;;;;4995616;28;20515;-86
2021/08/04 05:06:57;;;;;;;0.60;0.50;;;14.40;99.90;;;;;;4995018;28;20440;-86
2021/08/04 05:09:24;;;;;;;2.30;0.40;;;14.50;99.90;;;;;;4994522;28;20444;-86
2021/08/04 05:11:50;;;;;;;0.40;0.30;;;14.50;99.90;;;;;;4994948;28;20491;-86
2021/08/04 05:14:17;;;;;;;0.40;0.40;;;14.50;99.90;;;;;;4994797;28;20511;-86
2021/08/04 05:16:44;;;;;;;0.40;0.33;;;14.60;99.90;;;;;;4994929;28;20447;-86
2021/08/04 05:19:10;;;;;;;0.40;0.40;;;14.60;99.90;;;;;;4995039;28;20484;-86
2021/08/04 05:21:37;;;;;;;0.70;0.30;;;14.60;99.90;;;;;;4994822;28;20836;-86
2021/08/04 05:24:06;;;;;;;1.00;0.47;;;14.70;99.90;;;;;;4994826;28;20437;-86
2021/08/04 05:26:33;;;;;;;2.53;0.50;;;14.70;99.90;;;;;;4994794;28;20939;-86
2021/08/04 05:29:00;;;;;;;0.90;0.30;;;14.80;99.90;;;;;;4995223;28;20817;-86
2021/08/04 05:31:26;;;;;;;0.80;0.40;;;14.80;99.90;;;;;;4994574;28;20473;-86
2021/08/04 05:33:53;;;;;;;0.60;0.40;;;14.90;99.90;;;;;;4994621;28;20488;-86
2021/08/04 05:36:20;;;;;;;0.50;0.40;;;15.00;99.90;;;;;;4994393;28;20827;-86
2021/08/04 05:38:47;;;;;;;0.30;0.30;;;15.00;99.90;;;;;;4998100;28;20455;-86
2021/08/04 05:41:15;;;;;;;0.50;0.50;;;15.10;99.90;;;;;;4998590;28;20483;-86
2021/08/04 05:43:41;;;;;;;0.50;0.50;;;15.10;99.90;;;;;;4998544;28;20801;-86
2021/08/04 05:46:08;;;;;;;0.50;0.40;;;15.10;99.90;;;;;;4998354;28;20452;-86
2021/08/04 05:48:35;;;;;;;0.40;0.40;;;15.10;99.90;;;;;;4998484;28;20448;-86
2021/08/04 05:51:01;;;;;;;0.60;0.40;;;15.20;99.90;;;;;;4998106;28;20825;-86
2021/08/04 05:53:28;;;;;;;0.60;0.43;;;15.20;99.90;;;;;;4998391;28;20487;-86
2021/08/04 05:55:55;;;;;;;0.30;0.30;;;15.30;99.90;;;;;;4997944;28;20475;-86
2021/08/04 05:58:23;;;;;;;0.70;0.50;;;15.40;99.90;;;;;;4998395;28;20944;-85
2021/08/04 06:00:50;;;;;;;0.70;0.30;;;15.50;99.90;;;;;;4998206;28;20472;-86
2021/08/04 06:03:16;;;;;;;0.40;0.40;;;15.60;99.90;;;;;;4998082;28;20448;-86
2021/08/04 06:05:43;;;;;;;0.30;0.30;;;15.70;99.90;;;;;;4997937;28;20450;-86
2021/08/04 06:08:10;;;;;;;0.77;0.40;;;15.90;99.90;;;;;;4997837;28;20452;-86
2021/08/04 06:10:37;;;;;;;3.17;0.60;;;16.00;99.90;;;;;;4998099;28;20479;-86
2021/08/04 06:13:04;;;;;;;0.57;0.40;;;16.10;99.90;;;;;;4998087;28;20459;-87
2021/08/04 06:15:33;;;;;;;0.47;0.40;;;16.20;99.90;;;;;;4998165;28;20452;-86
2021/08/04 06:17:59;;;;;;;0.60;0.50;;;16.20;99.90;;;;;;4998182;28;20817;-86
2021/08/04 06:20:26;;;;;;;0.30;0.30;;;16.20;99.90;;;;;;4998037;28;20472;-86
2021/08/04 06:22:53;;;;;;;0.50;0.50;;;16.30;99.90;;;;;;4997835;28;20433;-86
2021/08/04 06:25:19;;;;;;;1.03;0.40;;;16.30;99.90;;;;;;4997869;28;20444;-86
2021/08/04 06:27:46;;;;;;;0.73;0.40;;;16.40;99.90;;;;;;4998033;28;20456;-86
2021/08/04 06:30:13;;;;;;;4.50;0.50;;;16.50;99.90;;;;;;4997561;28;20440;-86
2021/08/04 06:32:41;;;;;;;0.30;0.30;;;16.50;99.90;;;;;;4997688;28;20456;-86
2021/08/04 06:35:10;;;;;;;0.80;0.50;;;16.50;99.90;;;;;;4997987;28;20538;-88
2021/08/04 06:37:36;;;;;;;0.40;0.40;;;16.60;99.90;;;;;;4997573;28;20460;-87
2021/08/04 06:40:04;;;;;;;0.50;0.50;;;16.60;99.90;;;;;;4997397;28;20543;-86
2021/08/04 06:42:31;;;;;;;1.27;0.40;;;16.60;99.90;;;;;;4997362;28;20447;-87
2021/08/04 06:44:59;;;;;;;1.03;0.43;;;16.70;99.90;;;;;;4997162;28;20443;-86
2021/08/04 06:47:25;;;;;;;0.40;0.40;;;16.90;99.90;;;;;;4997579;28;20912;-87
2021/08/04 06:49:53;;;;;;;0.50;0.50;;;17.00;99.90;;;;;;4999733;28;20440;-87
2021/08/04 06:52:20;;;;;;;0.43;0.40;;;17.20;99.90;;;;;;5006051;28;20448;-87
2021/08/04 06:54:48;;;;;;;1.57;0.47;;;17.40;99.90;;;;;;4999332;28;20484;-87
2021/08/04 06:57:15;;;;;;;0.40;0.40;;;17.60;99.90;;;;;;5002196;28;20484;-87
2021/08/04 06:59:41;;;;;;;2.30;0.40;;;17.60;99.90;;;;;;4997396;28;20476;-87
2021/08/04 07:02:08;;;;;;;0.70;0.60;;;17.60;99.90;;;;;;4997129;28;20475;-87
2021/08/04 07:04:35;;;;;;;0.60;0.57;;;17.70;99.90;;;;;;4998037;28;20479;-87
2021/08/04 07:07:04;;;;;;;0.40;0.30;;;17.70;99.90;;;;;;4996990;28;20444;-87
2021/08/04 07:09:33;;;;;;;0.43;0.43;;;17.70;99.90;;;;;;4997123;28;20911;-87
2021/08/04 07:12:00;;;;;;;0.70;0.50;;;17.80;99.90;;;;;;4997416;28;20476;-87
2021/08/04 07:14:26;;;;;;;0.50;0.47;;;17.90;99.90;;;;;;4996729;28;20570;-87
2021/08/04 07:16:53;;;;;;;1.03;0.53;;;18.10;99.90;;;;;;4996716;28;20512;-87
2021/08/04 07:19:20;;;;;;;0.90;0.53;;;18.10;99.90;;;;;;4997113;28;20439;-87
2021/08/04 07:21:47;;;;;;;0.90;0.60;;;18.20;99.90;;;;;;4996603;28;20476;-87
2021/08/04 07:24:15;;;;;;;0.60;0.40;;;18.30;99.90;;;;;;4996859;28;20449;-87
2021/08/04 07:26:43;;;;;;;1.47;0.60;;;18.30;99.90;;;;;;4997015;28;20449;-87
2021/08/04 07:29:11;;;;;;;0.40;0.30;;;18.30;99.90;;;;;;4996916;28;20458;-87
2021/08/04 07:31:38;;;;;;;0.50;0.33;;;18.30;99.90;;;;;;4996569;28;20469;-87
2021/08/04 07:34:05;;;;;;;1.10;0.60;;;18.20;99.90;;;;;;4997606;28;20488;-87
2021/08/04 07:36:32;;;;;;;0.40;0.40;;;18.20;99.90;;;;;;4996742;28;20452;-88
2021/08/04 07:38:59;;;;;;;0.40;0.40;;;18.20;99.90;;;;;;4996947;28;20463;-87
2021/08/04 07:41:27;;;;;;;0.50;0.50;;;18.10;99.90;;;;;;4996341;28;20480;-87
2021/08/04 07:43:54;;;;;;;0.50;0.40;;;18.20;99.90;;;;;;4996799;28;20841;-87
2021/08/04 07:46:22;;;;;;;0.30;0.30;;;18.40;99.90;;;;;;5001231;28;20475;-87
2021/08/04 07:48:49;;;;;;;0.60;0.50;;;18.40;99.90;;;;;;4996808;28;20504;-88
2021/08/04 07:51:16;;;;;;;0.50;0.47;;;18.50;99.90;;;;;;4996290;28;20476;-87
2021/08/04 07:53:43;;;;;;;0.50;0.40;;;18.50;99.90;;;;;;4996520;28;20488;-87
2021/08/04 07:56:10;;;;;;;0.40;0.37;;;18.50;99.90;;;;;;4996091;28;20492;-87
2021/08/04 07:58:39;;;;;;;0.40;0.40;;;18.50;99.90;;;;;;4996735;28;20932;-87
2021/08/04 08:01:06;;;;;;;0.40;0.40;;;18.50;99.90;;;;;;4995494;28;20461;-87
2021/08/04 08:03:32;;;;;;;0.60;0.50;;;18.40;99.90;;;;;;4996160;28;20445;-87
2021/08/04 08:05:59;;;;;;;0.40;0.30;;;18.40;99.90;;;;;;4996011;28;20940;-87
2021/08/04 08:08:26;;;;;;;0.93;0.37;;;18.40;99.90;;;;;;4996053;28;20448;-87
2021/08/04 08:10:53;;;;;;;0.63;0.30;;;18.40;99.90;;;;;;4995930;28;20472;-87
2021/08/04 08:13:20;;;;;;;0.60;0.47;;;18.40;99.90;;;;;;4996003;28;20448;-88
2021/08/04 08:15:48;;;;;;;0.70;0.40;;;18.30;99.90;;;;;;4995321;28;20488;-88
2021/08/04 08:18:15;;;;;;;0.50;0.40;;;18.30;99.90;;;;;;4995895;28;20452;-87
2021/08/04 08:20:43;;;;;;;0.40;0.40;;;18.20;99.90;;;;;;4995809;28;20468;-88
2021/08/04 08:23:10;;;;;;;0.67;0.67;;;18.00;99.90;;;;;;4995478;28;20447;-88
2021/08/04 08:25:38;;;;;;;0.50;0.50;;;17.90;99.90;;;;;;4995703;28;20451;-86
2021/08/04 08:28:06;;;;;;;0.90;0.43;;;17.80;99.90;;;;;;4995736;28;20536;-87
2021/08/04 08:30:34;;;;;;;0.40;0.40;;;17.70;99.90;;;;;;4995734;28;20479;-82
2021/08/04 08:33:02;;;;;;;0.40;0.40;;;17.70;99.90;;;;;;4994665;28;20433;-86
2021/08/04 08:35:30;;;;;;;0.90;0.50;;;17.60;99.90;;;;;;4994478;28;20520;-81
2021/08/04 08:37:58;;;;;;;1.10;0.70;;;17.60;99.90;;;;;;4995329;28;20479;-87
2021/08/04 08:40:25;;;;;;;0.40;0.30;;;17.70;99.90;;;;;;4995377;28;20480;-87
2021/08/04 08:42:52;;;;;;;0.40;0.40;;;17.60;99.90;;;;;;4995574;28;20488;-87
2021/08/04 08:45:19;;;;;;;1.10;0.57;;;17.60;99.90;;;;;;4995217;28;20456;-87
2021/08/04 08:47:47;;;;;;;0.60;0.40;;;17.60;99.90;;;;;;4995333;28;20456;-87
2021/08/04 08:50:18;;;;;;;0.50;0.50;;;17.70;99.90;;;;;;4995270;28;20459;-87
2021/08/04 08:52:48;;;;;;;0.40;0.30;;;17.70;99.90;;;;;;4995460;28;20441;-87
2021/08/04 08:55:15;;;;;;;2.20;0.60;;;17.80;99.90;;;;;;4995414;28;20853;-87
2021/08/04 08:57:42;;;;;;;0.40;0.40;;;18.00;99.90;;;;;;4994865;28;20490;-87
2021/08/04 09:00:10;;;;;;;0.40;0.40;;;18.20;99.90;;;;;;4995219;28;20444;-87
2021/08/04 09:02:37;;;;;;;0.47;0.47;;;18.40;99.90;;;;;;4995878;28;20452;-88
2021/08/04 09:05:06;;;;;;;0.40;0.40;;;18.50;99.90;;;;;;4995323;28;20897;-87
2021/08/04 09:07:36;;;;;;;0.50;0.50;;;18.70;99.90;;;;;;4995560;28;20826;-88
2021/08/04 09:10:19;;;;;;;1.03;0.40;;;19.00;99.90;;;;;;4995153;28;20448;-87
2021/08/04 09:12:47;;;;;;;0.50;0.40;;;19.30;99.90;;;;;;5002123;28;20900;-87
2021/08/04 09:15:27;;;;;;;0.40;0.40;;;19.50;99.90;;;;;;4995380;28;20487;-89
2021/08/04 09:17:59;;;;;;;0.70;0.70;;;19.50;99.90;;;;;;4995109;28;20443;-88
2021/08/04 09:20:27;;;;;;;0.40;0.40;;;19.50;99.90;;;;;;4995093;28;20472;-88
2021/08/04 09:23:00;;;;;;;0.60;0.40;;;19.40;99.90;;;;;;4994923;28;20448;-88
2021/08/04 09:25:27;;;;;;;0.80;0.60;;;19.20;99.90;;;;;;4995424;28;20518;-88
2021/08/04 09:27:56;;;;;;;0.40;0.37;;;19.00;99.90;;;;;;4995224;28;20540;-88
2021/08/04 09:30:27;;;;;;;0.50;0.40;;;18.90;99.90;;;;;;4995553;28;20508;-88
2021/08/04 09:33:09;;;;;;;0.40;0.30;;;18.80;99.90;;;;;;4995011;28;20437;-88
2021/08/04 09:35:42;;;;;;;0.40;0.40;;;18.90;99.90;;;;;;4994776;28;20473;-88
2021/08/04 09:38:10;;;;;;;0.43;0.43;;;18.90;99.90;;;;;;4994938;28;20440;-88
2021/08/04 09:40:37;;;;;;;0.40;0.30;;;18.90;99.90;;;;;;4994587;28;20463;-88
2021/08/04 09:43:04;;;;;;;0.50;0.30;;;18.90;99.90;;;;;;4995193;28;20456;-88
2021/08/04 09:45:46;;;;;;;0.50;0.40;;;18.90;99.90;;;;;;4997567;28;20456;-88
2021/08/04 09:48:16;;;;;;;0.90;0.50;;;18.90;99.90;;;;;;4995598;28;20448;-88
2021/08/04 09:50:48;;;;;;;0.50;0.50;;;18.90;99.90;;;;;;4995031;28;20484;-88
2021/08/04 09:53:22;;;;;;;0.40;0.40;;;18.90;99.90;;;;;;4994471;28;20455;-88
2021/08/04 09:56:11;;;;;;;0.50;0.50;;;19.00;99.90;;;;;;4994902;28;20496;-88
2021/08/04 09:58:40;;;;;;;3.33;0.43;;;19.00;99.90;;;;;;4991853;28;20503;-88
2021/08/04 10:01:08;;;;;;;1.00;0.50;;;19.20;99.90;;;;;;4994652;28;20834;-89
2021/08/04 10:03:35;;;;;;;0.50;0.40;;;19.30;99.90;;;;;;4994625;28;20440;-88
2021/08/04 10:06:02;;;;;;;0.50;0.40;;;19.30;99.90;;;;;;4994345;28;20962;-87
2021/08/04 10:08:30;;;;;;;1.07;0.50;;;19.50;99.90;;;;;;4994701;28;20448;-89
2021/08/04 10:10:58;;;;;;;2.30;0.50;;;19.70;99.90;;;;;;4994454;28;20472;-88
2021/08/04 10:13:28;;;;;;;0.43;0.43;;;19.90;99.90;;;;;;4994240;28;20447;-89
2021/08/04 10:15:58;;;;;;;0.40;0.37;;;20.10;99.90;;;;;;4994551;28;20484;-90
2021/08/04 10:18:27;;;;;;;1.63;0.60;;;20.30;99.90;;;;;;4994658;28;20486;-90
2021/08/04 10:20:55;;;;;;;0.30;0.30;;;20.60;99.90;;;;;;4994538;28;20553;-89
2021/08/04 10:23:24;;;;;;;0.80;0.50;;;20.70;99.90;;;;;;4995726;28;20451;-89
2021/08/04 10:25:54;;;;;;;0.40;0.40;;;20.90;99.90;;;;;;4998570;28;20463;-89
2021/08/04 10:28:21;;;;;;;1.20;0.60;;;21.00;99.90;;;;;;4997986;28;20432;-89
2021/08/04 10:30:49;;;;;;;0.47;0.30;;;20.70;99.90;;;;;;4997808;28;20478;-87
2021/08/04 10:33:16;;;;;;;0.57;0.47;;;20.40;99.90;;;;;;4998094;28;20963;-89
2021/08/04 10:35:45;;;;;;;0.40;0.30;;;20.10;99.90;;;;;;4997750;28;20487;-88
2021/08/04 10:38:15;;;;;;;0.93;0.40;;;19.80;99.90;;;;;;4997645;28;20448;-88
2021/08/04 10:40:43;;;;;;;0.50;0.40;;;19.50;99.90;;;;;;4997225;28;21000;-84
2021/08/04 10:43:32;;;;;;;0.30;0.30;;;19.50;99.90;;;;;;4997399;28;20440;-83
2021/08/04 10:46:00;;;;;;;0.60;0.60;;;19.50;99.90;;;;;;4997469;28;20460;-83
2021/08/04 10:48:26;;;;;;;0.80;0.53;;;19.60;99.90;;;;;;4997181;28;20441;-82
2021/08/04 10:51:16;;;;;;;1.17;0.40;;;19.80;99.90;;;;;;4996916;28;20995;-82
2021/08/04 10:54:13;;;;;;;0.40;0.40;;;20.00;99.90;;;;;;4997206;28;20448;-82
2021/08/04 10:57:19;;;;;;;0.57;0.50;;;19.80;99.90;;;;;;4996752;28;20496;-82
2021/08/04 10:59:45;;;;;;;0.43;0.40;;;19.70;99.90;;;;;;4994737;28;20463;-83
2021/08/04 11:02:31;;;;;;;0.50;0.47;;;19.70;99.90;;;;;;4997316;28;20998;-84
2021/08/04 11:04:58;;;;;;;0.60;0.40;;;19.60;99.90;;;;;;4996993;28;20448;-83
2021/08/04 11:07:26;;;;;;;1.00;0.40;;;19.50;99.90;;;;;;4997226;28;20471;-84
2021/08/04 11:10:01;;;;;;;0.50;0.47;;;19.50;99.90;;;;;;4996965;28;20453;-82
2021/08/04 11:12:54;;;;;;;0.50;0.47;;;19.50;99.90;;;;;;4997114;28;20443;-83
2021/08/04 11:15:29;;;;;;;0.80;0.47;;;19.50;99.90;;;;;;4950971;28;20488;-84
2021/08/04 11:18:07;;;;;;;1.23;0.50;;;19.50;99.90;;;;;;4997412;28;20849;-84
2021/08/04 11:20:36;;;;;;;0.43;0.43;;;19.50;99.90;;;;;;4996681;28;20468;-83
2021/08/04 11:23:05;;;;;;;0.40;0.40;;;19.50;99.90;;;;;;4996502;28;20459;-82
2021/08/04 11:25:43;;;;;;;0.40;0.40;;;19.50;99.90;;;;;;4996487;28;20448;-82
2021/08/04 11:28:20;;;;;;;0.50;0.40;;;19.40;99.90;;;;;;4990008;28;20472;-83
2021/08/04 11:30:56;;;;;;;0.53;0.50;;;19.30;99.90;;;;;;4997121;28;20472;-83
2021/08/04 11:33:29;;;;;;;1.00;0.50;;;19.20;99.90;;;;;;4996498;28;20444;-83
2021/08/04 11:36:11;;;;;;;0.90;0.53;;;19.30;99.90;;;;;;4995328;28;20468;-84
2021/08/04 11:38:40;;;;;;;0.70;0.60;;;19.30;99.90;;;;;;4996280;28;20447;-82
2021/08/04 11:41:33;;;;;;;0.40;0.30;;;19.40;99.90;;;;;;4995643;28;20472;-82
2021/08/04 11:44:10;;;;;;;0.40;0.40;;;19.40;99.90;;;;;;4992557;28;20483;-83
2021/08/04 11:46:42;;;;;;;0.30;0.30;;;19.40;99.90;;;;;;4996001;28;20433;-83
2021/08/04 11:49:16;;;;;;;1.23;0.60;;;19.40;99.90;;;;;;4995970;28;20436;-82
2021/08/04 11:51:49;;;;;;;0.60;0.43;;;19.50;99.90;;;;;;4996003;28;20547;-82
2021/08/04 11:54:27;;;;;;;0.50;0.40;;;19.60;99.90;;;;;;4995907;28;20432;-82
2021/08/04 11:56:54;;;;;;;0.40;0.40;;;19.50;99.90;;;;;;4994890;28;20546;-81
2021/08/04 11:59:21;;;;;;;0.40;0.30;;;19.50;99.90;;;;;;4995210;28;20959;-81
2021/08/04 12:01:58;;;;;;;0.80;0.50;;;19.50;99.90;;;;;;4995436;28;20503;-83
2021/08/04 12:04:27;;;;;;;0.40;0.30;;;19.50;99.90;;;;;;4995691;28;20479;-82
2021/08/04 12:07:05;;;;;;;0.50;0.40;;;19.50;99.90;;;;;;4995480;28;20460;-82
2021/08/04 12:09:33;;;;;;;0.50;0.40;;;19.50;99.90;;;;;;4995415;28;20440;-82
2021/08/04 12:12:00;;;;;;;0.40;0.40;;;19.50;99.90;;;;;;4994943;28;20976;-83
2021/08/04 12:14:28;;;;;;;0.33;0.33;;;19.60;99.90;;;;;;4995405;28;20821;-82
2021/08/04 12:16:57;;;;;;;0.57;0.33;;;19.60;99.90;;;;;;4994871;28;20983;-81
2021/08/04 12:19:37;;;;;;;0.70;0.33;;;19.50;99.90;;;;;;4994892;28;20456;-80
2021/08/04 12:22:06;;;;;;;0.63;0.40;;;19.50;99.90;;;;;;4986896;28;20457;-82
2021/08/04 12:24:45;;;;;;;1.47;0.40;;;19.70;99.90;;;;;;4995149;28;20437;-82
2021/08/04 12:27:13;;;;;;;0.40;0.30;;;19.60;99.90;;;;;;4995100;28;20437;-82
2021/08/04 12:29:40;;;;;;;0.63;0.40;;;19.60;99.90;;;;;;4994564;28;20432;-82
2021/08/04 12:32:12;;;;;;;0.50;0.50;;;19.60;99.90;;;;;;4994740;28;20479;-82
2021/08/04 12:34:56;;;;;;;0.40;0.40;;;19.60;99.90;;;;;;4994757;28;20440;-81
2021/08/04 12:37:23;;;;;;;0.50;0.50;;;19.50;99.90;;;;;;4994271;28;20498;-80
2021/08/04 12:39:51;;;;;;;0.37;0.37;;;19.50;99.90;;;;;;4994653;28;20441;-81
2021/08/04 12:42:19;;;;;;;0.40;0.30;;;19.40;99.90;;;;;;4994544;28;20464;-82
2021/08/04 12:44:46;;;;;;;0.40;0.40;;;19.40;99.90;;;;;;4994669;28;20471;-82
2021/08/04 12:47:15;;;;;;;0.50;0.40;;;19.40;99.90;;;;;;4993690;28;20436;-82
2021/08/04 12:49:43;;;;;;;0.77;0.50;;;19.40;99.90;;;;;;4994490;28;20432;-80
2021/08/04 12:52:13;;;;;;;0.40;0.40;;;19.40;99.90;;;;;;4994149;28;21003;-81
2021/08/04 12:54:41;;;;;;;0.50;0.40;;;19.40;99.90;;;;;;4994151;28;20413;-81
2021/08/04 12:57:24;;;;;;;0.83;0.40;;;19.50;99.90;;;;;;4993867;28;20904;-82